sensor_id;sensor_type;location;lat;lon;timestamp;temperature;humidity
57719;DHT22;43561;50.090;18.522;2022-07-23T00:05:52;19.90;99.90
57719;DHT22;43561;50.090;18.522;2022-07-23T00:15:54;19.90;99.90
57719;DHT22;43561;50.090;18.522;2022-07-23T00:25:57;20.00;99.90
57719;DHT22;43561;50.090;18.522;2022-07-23T00:35:59;19.80;99.90
57719;DHT22;43561;50.090;18.522;2022-07-23T00:46:01;19.60;99.90
57719;DHT22;43561;50.090;18.522;2022-07-23T00:56:03;19.60;99.90
57719;DHT22;43561;50.090;18.522;2022-07-23T01:06:06;19.70;99.90
57719;DHT22;43561;50.090;18.522;2022-07-23T01:16:08;19.30;99.90
57719;DHT22;43561;50.090;18.522;2022-07-23T01:26:13;19.30;99.90
57719;DHT22;43561;50.090;18.522;2022-07-23T01:36:15;19.30;99.90
57719;DHT22;43561;50.090;18.522;2022-07-23T01:46:17;18.70;99.90
57719;DHT22;43561;50.090;18.522;2022-07-23T01:56:23;18.50;99.90
57719;DHT22;43561;50.090;18.522;2022-07-23T02:06:25;18.80;99.90
57719;DHT22;43561;50.090;18.522;2022-07-23T02:16:27;18.70;99.90
57719;DHT22;43561;50.090;18.522;2022-07-23T02:26:34;18.50;99.90
57719;DHT22;43561;50.090;18.522;2022-07-23T02:36:39;18.70;99.90
57719;DHT22;43561;50.090;18.522;2022-07-23T02:46:43;18.60;99.90
57719;DHT22;43561;50.090;18.522;2022-07-23T02:56:45;18.40;99.90
57719;DHT22;43561;50.090;18.522;2022-07-23T03:06:47;18.20;99.90
57719;DHT22;43561;50.090;18.522;2022-07-23T03:16:49;18.20;99.90
57719;DHT22;43561;50.090;18.522;2022-07-23T03:26:51;18.10;99.90
57719;DHT22;43561;50.090;18.522;2022-07-23T03:36:53;18.20;99.90
57719;DHT22;43561;50.090;18.522;2022-07-23T03:46:57;18.70;99.90
57719;DHT22;43561;50.090;18.522;2022-07-23T03:56:59;19.00;99.90
57719;DHT22;43561;50.090;18.522;2022-07-23T04:07:02;19.80;99.90
57719;DHT22;43561;50.090;18.522;2022-07-23T04:17:06;20.90;99.90
57719;DHT22;43561;50.090;18.522;2022-07-23T04:27:08;21.00;99.90
57719;DHT22;43561;50.090;18.522;2022-07-23T04:37:11;21.20;99.90
57719;DHT22;43561;50.090;18.522;2022-07-23T04:47:14;21.20;99.90
57719;DHT22;43561;50.090;18.522;2022-07-23T04:57:18;21.00;99.90
57719;DHT22;43561;50.090;18.522;2022-07-23T05:07:20;23.10;97.90
57719;DHT22;43561;50.090;18.522;2022-07-23T05:17:22;23.80;93.70
57719;DHT22;43561;50.090;18.522;2022-07-23T05:27:26;25.30;86.00
57719;DHT22;43561;50.090;18.522;2022-07-23T05:37:29;25.20;80.60
57719;DHT22;43561;50.090;18.522;2022-07-23T05:47:45;25.10;78.30
57719;DHT22;43561;50.090;18.522;2022-07-23T05:57:53;25.70;76.20
57719;DHT22;43561;50.090;18.522;2022-07-23T06:07:56;26.80;72.30
57719;DHT22;43561;50.090;18.522;2022-07-23T06:17:59;26.90;70.90
57719;DHT22;43561;50.090;18.522;2022-07-23T06:28:01;28.50;67.70
57719;DHT22;43561;50.090;18.522;2022-07-23T06:38:03;27.20;68.50
57719;DHT22;43561;50.090;18.522;2022-07-23T06:48:05;29.10;65.80
57719;DHT22;43561;50.090;18.522;2022-07-23T06:58:08;30.20;62.50
57719;DHT22;43561;50.090;18.522;2022-07-23T07:08:11;29.90;64.20
57719;DHT22;43561;50.090;18.522;2022-07-23T07:18:13;29.60;62.30
57719;DHT22;43561;50.090;18.522;2022-07-23T07:28:15;31.50;59.30
57719;DHT22;43561;50.090;18.522;2022-07-23T07:38:17;31.80;60.20
57719;DHT22;43561;50.090;18.522;2022-07-23T07:48:19;32.30;57.60
57719;DHT22;43561;50.090;18.522;2022-07-23T07:58:21;32.70;59.20
57719;DHT22;43561;50.090;18.522;2022-07-23T08:08:23;33.40;56.00
57719;DHT22;43561;50.090;18.522;2022-07-23T08:18:25;32.40;57.90
57719;DHT22;43561;50.090;18.522;2022-07-23T08:28:27;33.60;56.10
57719;DHT22;43561;50.090;18.522;2022-07-23T08:38:30;34.00;55.80
57719;DHT22;43561;50.090;18.522;2022-07-23T08:48:34;33.80;54.70
57719;DHT22;43561;50.090;18.522;2022-07-23T08:58:37;34.00;54.60
57719;DHT22;43561;50.090;18.522;2022-07-23T09:08:41;34.80;53.80
57719;DHT22;43561;50.090;18.522;2022-07-23T09:19:05;33.80;54.10
57719;DHT22;43561;50.090;18.522;2022-07-23T09:29:08;34.10;54.20
57719;DHT22;43561;50.090;18.522;2022-07-23T09:39:11;33.90;52.20
57719;DHT22;43561;50.090;18.522;2022-07-23T09:49:22;34.10;51.90
57719;DHT22;43561;50.090;18.522;2022-07-23T09:59:29;34.50;52.20
57719;DHT22;43561;50.090;18.522;2022-07-23T10:09:38;34.70;50.70
57719;DHT22;43561;50.090;18.522;2022-07-23T10:19:55;34.60;49.60
57719;DHT22;43561;50.090;18.522;2022-07-23T10:40:18;35.00;49.70
57719;DHT22;43561;50.090;18.522;2022-07-23T10:50:28;34.90;48.50
57719;DHT22;43561;50.090;18.522;2022-07-23T11:00:33;33.80;49.60
57719;DHT22;43561;50.090;18.522;2022-07-23T11:10:40;34.50;50.00
57719;DHT22;43561;50.090;18.522;2022-07-23T11:20:42;34.00;49.30
57719;DHT22;43561;50.090;18.522;2022-07-23T11:30:45;34.30;48.90
57719;DHT22;43561;50.090;18.522;2022-07-23T11:50:52;34.70;48.50
57719;DHT22;43561;50.090;18.522;2022-07-23T12:00:55;34.30;49.00
57719;DHT22;43561;50.090;18.522;2022-07-23T12:10:57;33.70;49.40
57719;DHT22;43561;50.090;18.522;2022-07-23T12:21:03;32.60;49.80
57719;DHT22;43561;50.090;18.522;2022-07-23T12:31:06;32.50;58.80
57719;DHT22;43561;50.090;18.522;2022-07-23T12:41:09;30.80;72.60
57719;DHT22;43561;50.090;18.522;2022-07-23T12:51:37;29.70;68.10
57719;DHT22;43561;50.090;18.522;2022-07-23T13:01:55;31.10;64.30
57719;DHT22;43561;50.090;18.522;2022-07-23T13:12:17;31.10;58.40
57719;DHT22;43561;50.090;18.522;2022-07-23T13:22:19;30.00;65.40
57719;DHT22;43561;50.090;18.522;2022-07-23T13:32:23;27.50;85.00
57719;DHT22;43561;50.090;18.522;2022-07-23T13:42:26;28.50;88.20
57719;DHT22;43561;50.090;18.522;2022-07-23T13:52:30;28.50;77.80
57719;DHT22;43561;50.090;18.522;2022-07-23T14:02:32;28.60;86.10
57719;DHT22;43561;50.090;18.522;2022-07-23T14:12:35;29.10;82.70
57719;DHT22;43561;50.090;18.522;2022-07-23T14:22:40;28.40;78.50
57719;DHT22;43561;50.090;18.522;2022-07-23T14:32:42;27.50;74.10
57719;DHT22;43561;50.090;18.522;2022-07-23T14:42:51;27.00;73.50
57719;DHT22;43561;50.090;18.522;2022-07-23T14:52:54;26.50;76.90
57719;DHT22;43561;50.090;18.522;2022-07-23T15:02:57;26.30;78.70
57719;DHT22;43561;50.090;18.522;2022-07-23T15:13:00;26.40;77.60
57719;DHT22;43561;50.090;18.522;2022-07-23T15:23:02;26.40;75.60
57719;DHT22;43561;50.090;18.522;2022-07-23T15:33:09;26.40;77.00
57719;DHT22;43561;50.090;18.522;2022-07-23T15:43:31;26.20;78.00
57719;DHT22;43561;50.090;18.522;2022-07-23T15:53:36;26.10;77.80
57719;DHT22;43561;50.090;18.522;2022-07-23T16:04:00;26.00;77.90
57719;DHT22;43561;50.090;18.522;2022-07-23T16:14:05;25.90;77.60
57719;DHT22;43561;50.090;18.522;2022-07-23T16:24:08;25.70;79.40
57719;DHT22;43561;50.090;18.522;2022-07-23T16:34:10;25.40;80.10
57719;DHT22;43561;50.090;18.522;2022-07-23T16:44:12;25.10;82.20
57719;DHT22;43561;50.090;18.522;2022-07-23T16:54:14;25.00;83.60
57719;DHT22;43561;50.090;18.522;2022-07-23T17:04:16;24.80;85.90
57719;DHT22;43561;50.090;18.522;2022-07-23T17:14:18;24.60;87.30
57719;DHT22;43561;50.090;18.522;2022-07-23T17:24:21;24.80;88.60
57719;DHT22;43561;50.090;18.522;2022-07-23T17:34:23;24.70;87.80
57719;DHT22;43561;50.090;18.522;2022-07-23T17:44:25;25.10;86.80
57719;DHT22;43561;50.090;18.522;2022-07-23T17:54:27;24.70;87.40
57719;DHT22;43561;50.090;18.522;2022-07-23T18:04:29;24.70;87.50
57719;DHT22;43561;50.090;18.522;2022-07-23T18:14:31;24.50;88.20
57719;DHT22;43561;50.090;18.522;2022-07-23T18:24:33;24.50;90.20
57719;DHT22;43561;50.090;18.522;2022-07-23T18:34:35;24.40;90.30
57719;DHT22;43561;50.090;18.522;2022-07-23T18:44:38;24.40;90.90
57719;DHT22;43561;50.090;18.522;2022-07-23T18:54:40;24.30;91.40
57719;DHT22;43561;50.090;18.522;2022-07-23T19:04:42;24.30;92.30
57719;DHT22;43561;50.090;18.522;2022-07-23T19:14:45;24.30;92.80
57719;DHT22;43561;50.090;18.522;2022-07-23T19:24:47;24.10;93.50
57719;DHT22;43561;50.090;18.522;2022-07-23T19:34:49;24.00;95.10
57719;DHT22;43561;50.090;18.522;2022-07-23T19:44:51;23.70;98.90
57719;DHT22;43561;50.090;18.522;2022-07-23T19:54:53;23.60;99.70
57719;DHT22;43561;50.090;18.522;2022-07-23T20:04:55;23.60;99.90
57719;DHT22;43561;50.090;18.522;2022-07-23T20:14:57;23.50;99.90
57719;DHT22;43561;50.090;18.522;2022-07-23T20:24:59;22.80;99.90
57719;DHT22;43561;50.090;18.522;2022-07-23T20:35:02;22.50;99.90
57719;DHT22;43561;50.090;18.522;2022-07-23T20:45:04;22.70;99.90
57719;DHT22;43561;50.090;18.522;2022-07-23T20:55:06;22.20;99.90
57719;DHT22;43561;50.090;18.522;2022-07-23T21:05:09;22.00;99.90
57719;DHT22;43561;50.090;18.522;2022-07-23T21:15:11;22.00;99.90
57719;DHT22;43561;50.090;18.522;2022-07-23T21:25:14;21.90;99.90
57719;DHT22;43561;50.090;18.522;2022-07-23T21:35:16;20.90;99.90
57719;DHT22;43561;50.090;18.522;2022-07-23T21:45:18;20.70;99.90
57719;DHT22;43561;50.090;18.522;2022-07-23T21:55:20;20.50;99.90
57719;DHT22;43561;50.090;18.522;2022-07-23T22:05:23;20.40;99.90
57719;DHT22;43561;50.090;18.522;2022-07-23T22:15:27;20.30;99.90
57719;DHT22;43561;50.090;18.522;2022-07-23T22:25:29;20.50;99.90
57719;DHT22;43561;50.090;18.522;2022-07-23T22:35:31;20.40;99.90
57719;DHT22;43561;50.090;18.522;2022-07-23T22:45:33;20.60;99.90
57719;DHT22;43561;50.090;18.522;2022-07-23T22:55:35;20.60;99.90
57719;DHT22;43561;50.090;18.522;2022-07-23T23:05:37;20.50;99.90
57719;DHT22;43561;50.090;18.522;2022-07-23T23:15:39;20.40;99.90
57719;DHT22;43561;50.090;18.522;2022-07-23T23:25:42;20.30;99.90
57719;DHT22;43561;50.090;18.522;2022-07-23T23:35:44;20.50;99.90
57719;DHT22;43561;50.090;18.522;2022-07-23T23:45:46;20.50;99.90
57719;DHT22;43561;50.090;18.522;2022-07-23T23:55:48;20.30;99.90
